Latest Weather Observations for Brisbane Airport

IDQ60801

Issued at 12:35 pm EST Wednesday 26 November 2014 (issued every 30 minutes, with the page automatically refreshed every 10 minutes)

About weather observations | Map of weather stations | Latest weather observations for QLD | Other Formats
Station Details ID: 040842 Name: BRISBANE AERO Lat: -27.39 Lon: 153.13 Height: 4.51 m
Data from the previous 72 hours. | See also: Recent months at Brisbane Airport
Date/Time
EST
Temp
°C
App
Temp
°C
Dew
Point
Rel
Hum
%
Delta-T
°C
Wind Press
QNH
hPa
Press
MSL
hPa
Rain
since 9 am
mm
Dir
 
Spd
km/h
Gust
km/h
Spd
kts
Gust
kts
26/12:30pm 27.9 26.0 19.4 60 5.5 N 28 33 15 18 1015.9 - 0.0
26/12:00pm 27.8 25.5 17.7 54 6.4 N 26 33 14 18 1016.3 1016.3 0.0
26/11:30am 27.9 26.5 18.7 57 5.9 N 24 32 13 17 1016.5 - 0.0
26/11:00am 27.2 25.9 19.1 61 5.2 N 24 30 13 16 1016.9 - 0.0
26/10:30am 26.9 25.3 19.1 62 5.0 N 26 35 14 19 1016.9 - 0.0
26/10:00am 25.8 24.6 19.3 67 4.2 N 24 28 13 15 1017.1 - 0.0
26/09:30am 25.9 25.4 20.0 70 3.8 N 22 30 12 16 1017.0 - 0.0
26/09:00am 26.0 25.9 20.7 72 3.5 NNE 22 30 12 16 1017.0 1017.0 0.0
26/08:30am 25.8 26.3 21.1 75 3.1 NNE 20 30 11 16 1017.0 - 0.0
26/08:00am 25.7 26.0 20.8 74 3.2 NNE 20 26 11 14 1016.9 - 0.0
26/07:30am 25.2 27.2 21.6 80 2.4 N 13 19 7 10 1017.0 - 0.0
26/07:00am 25.6 26.2 21.0 75 3.0 NE 19 24 10 13 1016.8 - 0.0
26/06:30am 25.3 26.5 21.4 79 2.6 NNE 17 20 9 11 1016.7 - 0.0
26/06:00am 24.9 27.0 21.7 82 2.1 NNE 13 15 7 8 1016.3 1016.3 0.0
26/05:30am 24.3 26.2 21.4 84 1.9 N 13 17 7 9 1015.9 - 0.0
26/05:00am 23.9 25.1 21.5 86 1.6 NNE 17 22 9 12 1015.6 - 0.0
26/04:30am 24.0 24.9 21.6 86 1.6 NNE 19 24 10 13 1015.3 - 0.0
26/04:00am 24.1 25.8 21.7 86 1.6 N 15 19 8 10 1015.1 - 0.0
26/03:30am 23.9 25.5 21.5 86 1.6 N 15 20 8 11 1015.2 - 0.0
26/03:00am 24.2 25.6 21.8 86 1.6 N 17 20 9 11 1014.9 1014.9 0.0
26/02:30am 24.0 25.3 21.7 87 1.5 NNE 17 24 9 13 1014.9 - 0.0
26/02:00am 24.0 25.3 21.6 86 1.6 NNE 17 20 9 11 1015.1 - 0.0
26/01:30am 24.2 25.6 21.8 86 1.6 NNE 17 20 9 11 1015.5 - 0.0
26/01:00am 24.4 26.6 21.8 85 1.7 N 13 17 7 9 1015.9 - 0.0
26/12:30am 24.5 26.3 21.9 85 1.7 N 15 19 8 10 1016.0 - 0.0
26/12:00am 24.7 27.1 22.2 86 1.7 N 13 19 7 10 1016.5 1016.5 0.0
 
Date/Time
EST
Temp
°C
App
Temp
°C
Dew
Point
Rel
Hum
%
Delta-T
°C
Wind Press
QNH
hPa
Press
MSL
hPa
Rain
since 9 am
mm
Dir
 
Spd
km/h
Gust
km/h
Spd
kts
Gust
kts
25/11:43pm 24.8 26.4 22.1 85 1.8 N 17 26 9 14 1016.8 - 0.0
25/11:30pm 24.8 27.0 21.9 84 1.9 N 13 17 7 9 1017.0 - 0.0
25/11:00pm 24.7 26.8 21.7 83 2.0 NNE 13 15 7 8 1017.1 - 0.0
25/10:30pm 25.1 28.3 21.6 81 2.3 NE 7 9 4 5 1017.3 - 0.0
25/10:00pm 25.1 27.9 21.6 81 2.3 ENE 9 13 5 7 1017.3 - 0.0
25/09:30pm 24.9 26.7 21.9 83 2.0 NE 15 19 8 10 1017.1 - 0.0
25/09:00pm 24.9 26.8 22.0 84 1.9 NE 15 19 8 10 1016.7 1016.7 0.0
25/08:30pm 25.2 26.9 21.7 81 2.3 NE 15 20 8 11 1016.3 - 0.0
25/08:00pm 25.1 25.9 21.8 82 2.2 NNE 20 28 11 15 1015.5 - 0.0
25/07:30pm 25.1 25.4 22.3 84 1.9 NNE 24 37 13 20 1014.6 - 0.0
25/07:00pm 25.0 24.9 22.2 84 1.9 N 26 35 14 19 1013.6 - 0.0
25/06:30pm 24.9 23.5 22.2 85 1.8 N 33 44 18 24 1012.8 - 0.0
25/06:00pm 25.0 23.3 21.7 82 2.2 N 33 44 18 24 1012.3 1012.3 0.0
25/05:30pm 25.5 23.8 21.7 79 2.5 N 33 43 18 23 1012.0 - 0.0
25/05:00pm 26.3 24.6 21.3 74 3.3 N 32 39 17 21 1011.9 - 0.0
25/04:30pm 27.0 25.1 21.0 69 4.0 N 32 39 17 21 1011.6 - 0.0
25/04:00pm 27.4 25.3 20.6 66 4.5 N 32 41 17 22 1011.4 - 0.0
25/03:30pm 27.6 25.3 20.1 63 4.9 N 32 41 17 22 1011.6 - 0.0
25/03:00pm 28.2 26.4 20.3 62 5.2 NNE 30 35 16 19 1011.8 1011.8 0.0
25/02:30pm 27.5 24.7 19.5 61 5.2 NNE 33 39 18 21 1011.9 - 0.0
25/02:00pm 28.6 25.7 19.2 56 6.1 NNE 33 43 18 23 1012.1 - 0.0
25/01:30pm 28.3 25.1 18.1 54 6.5 NNE 32 37 17 20 1012.5 - 0.0
25/01:00pm 28.2 25.2 18.7 56 6.1 NNE 32 37 17 20 1012.7 - 0.0
25/12:30pm 28.3 25.2 18.3 54 6.4 NNE 32 37 17 20 1013.1 - 0.0
25/12:00pm 28.1 25.2 18.0 54 6.4 NNE 30 39 16 21 1013.5 1013.5 0.0
25/11:30am 27.9 25.1 18.3 56 6.1 NNE 30 33 16 18 1014.0 - 0.0
25/11:00am 27.6 25.2 18.3 57 5.9 NNE 28 33 15 18 1014.5 - 0.0
25/10:30am 27.6 26.4 17.4 53 6.4 NNE 20 28 11 15 1015.1 - 0.0
25/10:00am 27.2 26.1 17.3 54 6.2 NNE 19 24 10 13 1015.4 - 0.0
25/09:30am 26.5 25.3 17.4 57 5.7 NNE 20 28 11 15 1015.3 - 0.0
25/09:00am 26.3 25.3 17.5 58 5.5 NNE 19 24 10 13 1015.6 1015.6 0.0
25/08:30am 25.6 25.3 18.2 63 4.7 N 17 20 9 11 1015.8 - 0.0
25/08:00am 25.1 25.7 18.6 67 4.1 N 13 19 7 10 1015.9 - 0.0
25/07:30am 24.3 24.8 18.4 69 3.7 N 13 19 7 10 1016.0 - 0.0
25/07:00am 23.8 24.3 18.4 72 3.4 NNW 13 15 7 8 1016.0 - 0.0
25/06:30am 23.5 24.6 18.8 75 3.0 NNW 11 17 6 9 1016.1 - 0.0
25/06:00am 22.3 22.9 18.5 79 2.4 NW 13 17 7 9 1015.8 1015.8 0.0
25/05:30am 22.0 22.9 19.2 84 1.8 NW 13 17 7 9 1015.4 - 0.0
25/05:00am 21.9 21.4 19.1 84 1.8 NNW 20 28 11 15 1014.5 - 0.0
25/04:30am 21.1 20.8 19.2 89 1.2 NNW 19 24 10 13 1014.1 - 0.0
25/04:00am 22.0 22.1 19.2 84 1.8 N 17 20 9 11 1014.4 - 0.0
25/03:30am 22.2 21.7 19.2 83 1.9 N 20 28 11 15 1014.1 - 0.0
25/03:00am 22.2 20.7 19.4 84 1.8 N 26 32 14 17 1014.0 1014.0 0.0
25/02:30am 22.5 20.5 19.2 81 2.1 N 28 33 15 18 1014.0 - 0.0
25/02:00am 22.7 20.7 19.2 80 2.2 N 28 35 15 19 1014.0 - 0.0
25/01:30am 23.0 20.3 19.2 79 2.4 N 32 39 17 21 1014.0 - 0.0
25/01:00am 23.2 20.6 19.4 79 2.4 N 32 43 17 23 1014.1 - 0.0
25/12:30am 23.5 20.9 19.6 79 2.5 N 32 43 17 23 1014.6 - 0.0
25/12:00am 23.6 21.2 19.9 80 2.4 N 32 43 17 23 1014.7 1014.7 0.0
 
Date/Time
EST
Temp
°C
App
Temp
°C
Dew
Point
Rel
Hum
%
Delta-T
°C
Wind Press
QNH
hPa
Press
MSL
hPa
Rain
since 9 am
mm
Dir
 
Spd
km/h
Gust
km/h
Spd
kts
Gust
kts
24/11:30pm 23.8 21.2 19.9 79 2.5 N 33 41 18 22 1014.9 - 0.0
24/11:00pm 24.0 21.4 19.8 77 2.7 N 33 48 18 26 1015.0 - 0.0
24/10:30pm 24.4 21.8 19.9 76 2.9 N 33 41 18 22 1015.2 - 0.0
24/10:00pm 24.4 20.9 19.7 75 3.0 N 37 46 20 25 1015.3 - 0.0
24/09:30pm 24.5 21.3 20.2 77 2.8 N 37 46 20 25 1015.0 - 0.0
24/09:03pm 24.5 21.9 20.0 76 2.9 N 33 52 18 28 1015.1 - 0.0
24/09:00pm 24.5 21.6 20.0 76 2.9 N 35 48 19 26 1015.0 1015.0 0.0
24/08:30pm 24.4 21.6 20.2 77 2.7 N 35 44 19 24 1014.6 - 0.0
24/08:00pm 24.4 21.5 20.1 77 2.8 N 35 44 19 24 1014.3 - 0.0
24/07:30pm 24.2 21.3 20.0 77 2.7 N 35 44 19 24 1013.9 - 0.0
24/07:00pm 24.3 21.4 20.1 77 2.7 N 35 44 19 24 1013.4 - 0.0
24/06:30pm 24.4 21.9 20.2 77 2.7 N 33 41 18 22 1013.3 - 0.0
24/06:00pm 24.6 21.7 20.1 76 2.9 N 35 46 19 25 1013.1 1013.1 0.0
24/05:30pm 25.2 22.4 20.3 74 3.2 N 35 48 19 26 1012.8 - 0.0
24/05:00pm 25.8 23.2 20.6 73 3.4 N 35 44 19 24 1012.5 - 0.0
24/04:30pm 26.1 23.4 20.4 71 3.7 N 35 44 19 24 1012.5 - 0.0
24/04:00pm 26.9 24.6 20.5 68 4.2 N 33 43 18 23 1012.6 - 0.0
24/03:30pm 26.6 23.8 20.3 68 4.1 N 35 46 19 25 1012.9 - 0.0
24/03:00pm 27.1 24.5 20.7 68 4.2 N 35 44 19 24 1013.1 1013.1 0.0
24/02:30pm 27.7 25.1 20.6 65 4.7 N 35 44 19 24 1013.3 - 0.0
24/02:00pm 28.0 25.1 20.9 65 4.7 N 37 48 20 26 1013.8 - 0.0
24/01:30pm 27.9 25.1 20.3 63 5.0 N 35 44 19 24 1014.2 - 0.0
24/01:00pm 28.1 25.2 20.0 61 5.3 NNE 35 44 19 24 1014.7 - 0.0
24/12:30pm 28.2 25.2 19.9 60 5.4 NNE 35 43 19 23 1015.1 - 0.0
24/12:00pm 27.8 25.0 19.5 60 5.4 NNE 33 43 18 23 1015.4 1015.4 0.0
24/11:30am 27.7 24.7 19.0 59 5.6 NNE 33 41 18 22 1016.0 - 0.0
24/11:00am 27.7 25.1 19.5 61 5.3 NNE 32 41 17 22 1016.5 - 0.0
24/10:30am 27.2 25.0 19.6 63 4.9 NNE 30 39 16 21 1017.0 - 0.0
24/10:00am 27.2 25.0 19.6 63 4.9 NNE 30 35 16 19 1017.4 - 0.0
24/09:30am 27.3 26.2 19.4 62 5.1 NNE 24 30 13 16 1017.7 - 0.0
24/09:00am 27.1 25.4 17.2 54 6.2 N 22 28 12 15 1017.8 1017.8 0.0
24/08:30am 27.0 25.5 17.8 57 5.8 N 22 26 12 14 1017.8 - 0.0
24/08:00am 26.4 25.9 19.1 64 4.7 N 20 28 11 15 1018.0 - 0.0
24/07:30am 26.0 24.7 19.1 65 4.4 N 24 32 13 17 1017.9 - 0.0
24/07:00am 25.3 24.1 20.1 73 3.4 N 26 33 14 18 1017.9 - 0.0
24/06:30am 24.6 24.3 20.4 77 2.7 N 22 30 12 16 1017.9 - 0.0
24/06:00am 23.6 23.0 20.4 82 2.1 N 24 28 13 15 1017.7 1017.7 0.0
24/05:30am 23.3 22.6 20.2 83 2.0 NNW 24 32 13 17 1017.4 - 0.0
24/05:00am 23.0 22.3 20.2 84 1.8 N 24 32 13 17 1017.0 - 0.0
24/04:30am 22.9 21.8 20.3 85 1.7 NNW 26 33 14 18 1016.8 - 0.0
24/04:00am 23.2 22.6 20.4 84 1.8 N 24 32 13 17 1016.6 - 0.0
24/03:30am 23.2 22.6 20.6 85 1.7 N 24 32 13 17 1016.4 - 0.0
24/03:00am 23.4 22.8 20.5 84 1.9 N 24 37 13 20 1016.5 1016.5 0.0
24/02:30am 23.5 22.6 20.6 84 1.9 N 26 32 14 17 1016.4 - 0.0
24/02:00am 23.8 23.3 20.7 83 2.0 N 24 35 13 19 1016.3 - 0.0
24/01:30am 24.1 23.2 20.7 81 2.2 N 26 33 14 18 1016.3 - 0.0
24/01:00am 24.1 22.8 20.6 81 2.3 N 28 35 15 19 1016.3 - 0.0
24/12:30am 24.2 23.0 20.8 81 2.2 N 28 35 15 19 1016.6 - 0.0
24/12:00am 24.3 22.1 20.8 81 2.3 N 33 39 18 21 1016.8 1016.8 0.0
 
Date/Time
EST
Temp
°C
App
Temp
°C
Dew
Point
Rel
Hum
%
Delta-T
°C
Wind Press
QNH
hPa
Press
MSL
hPa
Rain
since 9 am
mm
Dir
 
Spd
km/h
Gust
km/h
Spd
kts
Gust
kts
23/11:30pm 24.5 22.5 20.7 79 2.5 N 32 39 17 21 1016.9 - 0.0
23/11:00pm 24.5 22.6 21.0 81 2.3 N 32 37 17 20 1016.8 - 0.0
23/10:30pm 24.6 24.3 21.1 81 2.3 N 24 32 13 17 1016.8 - 0.0
23/10:00pm 24.6 23.4 20.9 80 2.4 N 28 33 15 18 1016.6 - 0.0
23/09:30pm 24.6 22.9 20.6 78 2.6 N 30 35 16 19 1016.5 - 0.0
23/09:00pm 24.7 23.1 20.7 78 2.6 N 30 39 16 21 1016.4 1016.4 0.0
23/08:30pm 24.8 23.6 20.8 78 2.6 N 28 35 15 19 1016.3 - 0.0
23/08:00pm 24.7 23.4 20.6 78 2.7 N 28 35 15 19 1016.0 - 0.0
23/07:30pm 24.8 23.0 20.3 76 2.9 N 30 37 16 20 1015.5 - 0.0
23/07:00pm 25.0 23.4 20.1 74 3.2 N 28 35 15 19 1015.2 - 0.0
23/06:30pm 25.2 23.6 20.1 73 3.3 N 28 35 15 19 1014.9 - 0.0
23/06:00pm 25.4 23.4 20.0 72 3.5 N 30 37 16 20 1014.3 1014.3 0.0
23/05:30pm 25.8 23.2 19.6 68 4.0 N 32 39 17 21 1013.9 - 0.0
23/05:00pm 26.3 23.6 19.3 65 4.5 N 32 41 17 22 1013.7 - 0.0
23/04:30pm 26.7 24.3 19.1 63 4.9 N 30 37 16 20 1013.9 - 0.0
23/04:00pm 27.3 24.1 19.4 62 5.1 N 35 44 19 24 1013.9 - 0.0
23/03:30pm 28.0 25.1 19.2 58 5.7 N 33 43 18 23 1014.0 - 0.0
23/03:00pm 27.6 24.0 17.6 54 6.3 N 33 46 18 25 1014.4 1014.4 0.0
23/02:30pm 28.0 25.0 19.0 58 5.8 N 33 41 18 22 1014.6 - 0.0
23/02:00pm 28.2 25.0 20.3 62 5.2 N 37 46 20 25 1014.8 - 0.0
23/01:30pm 27.7 24.7 19.9 62 5.1 N 35 44 19 24 1015.1 - 0.0
23/01:00pm 27.8 25.4 20.3 63 4.9 N 33 46 18 25 1015.5 - 0.0

Other Formats:

Comma delimited format used in spreadsheet applications
http://www.bom.gov.au/fwo/IDQ60801/IDQ60801.94578.axf

JavaScript Object Notation format (JSON) in row-major order
http://www.bom.gov.au/fwo/IDQ60801/IDQ60801.94578.json